Time,TemperatureF,DewpointF,PressureIn,WindDirection,WindDirectionDegrees,WindSpeedMPH,WindSpeedGustMPH,Humidity,HourlyPrecipIn,Conditions,Clouds,dailyrainin,SoftwareType,DateUTC
2013-05-21 00:11:00,67.6,67.3,29.65,West,270,0.0,-999.0,99,-99.99,,,0.00,Acu-Link.com,2013-05-21 04:11:00,
2013-05-21 00:26:00,67.3,67.0,29.65,North,0,0.0,-999.0,99,-99.99,,,0.00,Acu-Link.com,2013-05-21 04:26:00,
2013-05-21 00:41:00,66.7,66.4,29.66,SSE,157,0.0,-999.0,99,-99.99,,,0.00,Acu-Link.com,2013-05-21 04:41:00,
2013-05-21 00:56:00,66.7,66.4,29.65,SSE,157,0.0,-999.0,99,-99.99,,,0.00,Acu-Link.com,2013-05-21 04:56:00,
2013-05-21 01:11:00,66.6,66.3,29.66,North,0,0.0,-999.0,99,-99.99,,,0.00,Acu-Link.com,2013-05-21 05:11:00,
2013-05-21 01:26:00,66.2,65.9,29.65,SW,225,1.1,-999.0,99,-99.99,,,0.00,Acu-Link.com,2013-05-21 05:26:00,
2013-05-21 01:41:00,66.2,65.9,29.65,South,180,0.0,-999.0,99,-99.99,,,0.00,Acu-Link.com,2013-05-21 05:41:00,
2013-05-21 01:56:00,66.9,66.6,29.66,West,270,2.7,-999.0,99,-99.99,,,0.00,Acu-Link.com,2013-05-21 05:56:00,
2013-05-21 02:12:00,67.5,67.2,29.67,West,270,2.7,-999.0,99,-99.99,,,0.00,Acu-Link.com,2013-05-21 06:12:00,
2013-05-21 02:27:00,66.9,66.6,29.66,West,270,1.7,-999.0,99,-99.99,,,0.00,Acu-Link.com,2013-05-21 06:27:00,
2013-05-21 02:42:00,68.0,67.1,29.65,WSW,247,1.7,-999.0,97,-99.99,,,0.00,Acu-Link.com,2013-05-21 06:42:00,
2013-05-21 02:57:00,68.5,67.0,29.66,WSW,247,2.7,-999.0,95,-99.99,,,0.00,Acu-Link.com,2013-05-21 06:57:00,
2013-05-21 03:12:00,68.0,66.8,29.66,SSE,157,1.1,-999.0,96,-99.99,,,0.00,Acu-Link.com,2013-05-21 07:12:00,
2013-05-21 03:27:00,67.3,66.7,29.66,WSW,247,1.7,-999.0,98,-99.99,,,0.00,Acu-Link.com,2013-05-21 07:27:00,
2013-05-21 03:42:00,67.3,66.7,29.66,SW,225,0.0,-999.0,98,-99.99,,,0.00,Acu-Link.com,2013-05-21 07:42:00,
2013-05-21 03:57:00,66.6,66.3,29.65,WSW,247,0.0,-999.0,99,-99.99,,,0.00,Acu-Link.com,2013-05-21 07:57:00,
2013-05-21 04:14:00,66.4,66.1,29.65,SW,225,2.2,-999.0,99,-99.99,,,0.00,Acu-Link.com,2013-05-21 08:14:00,
2013-05-21 04:29:00,66.7,66.4,29.65,West,270,1.7,-999.0,99,-99.99,,,0.00,Acu-Link.com,2013-05-21 08:29:00,
2013-05-21 04:44:00,67.5,66.9,29.65,West,270,2.2,-999.0,98,-99.99,,,0.00,Acu-Link.com,2013-05-21 08:44:00,
2013-05-21 04:59:00,67.1,66.8,29.65,WSW,247,1.7,-999.0,99,-99.99,,,0.00,Acu-Link.com,2013-05-21 08:59:00,
2013-05-21 05:14:00,66.9,66.6,29.65,WSW,247,1.7,-999.0,99,-99.99,,,0.00,Acu-Link.com,2013-05-21 09:14:00,
2013-05-21 05:30:00,66.7,66.4,29.65,WSW,247,2.2,-999.0,99,-99.99,,,0.00,Acu-Link.com,2013-05-21 09:30:00,
2013-05-21 05:45:00,66.7,66.4,29.66,SW,225,0.0,-999.0,99,-99.99,,,0.00,Acu-Link.com,2013-05-21 09:45:00,
2013-05-21 06:00:00,66.4,66.1,29.67,WSW,247,1.7,-999.0,99,-99.99,,,0.00,Acu-Link.com,2013-05-21 10:00:00,
2013-05-21 06:15:00,66.2,65.9,29.67,SSW,202,1.1,-999.0,99,-99.99,,,0.00,Acu-Link.com,2013-05-21 10:15:00,
2013-05-21 06:30:00,66.4,66.1,29.66,West,270,2.2,-999.0,99,-99.99,,,0.00,Acu-Link.com,2013-05-21 10:30:00,
2013-05-21 06:45:00,67.1,66.8,29.66,West,270,2.2,-999.0,99,-99.99,,,0.00,Acu-Link.com,2013-05-21 10:45:00,
2013-05-21 07:00:00,67.8,67.2,29.66,West,270,2.2,-999.0,98,-99.99,,,0.00,Acu-Link.com,2013-05-21 11:00:00,
2013-05-21 07:15:00,68.7,67.5,29.68,West,270,0.0,-999.0,96,-99.99,,,0.00,Acu-Link.com,2013-05-21 11:15:00,
2013-05-21 07:30:00,69.3,67.5,29.69,WSW,247,2.2,-999.0,94,-99.99,,,0.00,Acu-Link.com,2013-05-21 11:30:00,
2013-05-21 07:45:00,70.2,68.1,29.68,WSW,247,2.2,-999.0,93,-99.99,,,0.00,Acu-Link.com,2013-05-21 11:45:00,
2013-05-21 08:01:00,71.8,68.7,29.68,SW,225,1.7,-999.0,90,-99.99,,,0.00,Acu-Link.com,2013-05-21 12:01:00,
2013-05-21 08:16:00,72.7,68.9,29.69,SW,225,2.2,-999.0,88,-99.99,,,0.00,Acu-Link.com,2013-05-21 12:16:00,
2013-05-21 08:31:00,73.4,68.9,29.71,WSW,247,2.2,-999.0,86,-99.99,,,0.00,Acu-Link.com,2013-05-21 12:31:00,
2013-05-21 08:46:00,73.8,69.3,29.70,West,270,4.7,-999.0,86,-99.99,,,0.00,Acu-Link.com,2013-05-21 12:46:00,
2013-05-21 09:01:00,73.9,69.1,29.70,WSW,247,2.7,-999.0,85,-99.99,,,0.00,Acu-Link.com,2013-05-21 13:01:00,
2013-05-21 09:16:00,75.2,69.7,29.70,SW,225,2.7,-999.0,83,-99.99,,,0.00,Acu-Link.com,2013-05-21 13:16:00,
2013-05-21 09:32:00,75.2,69.0,29.70,South,180,2.7,-999.0,81,-99.99,,,0.00,Acu-Link.com,2013-05-21 13:32:00,
2013-05-21 09:47:00,76.1,69.8,29.71,SW,225,1.1,-999.0,81,-99.99,,,0.00,Acu-Link.com,2013-05-21 13:47:00,
2013-05-21 10:02:00,74.5,69.7,29.71,WSW,247,2.2,-999.0,85,-99.99,,,0.00,Acu-Link.com,2013-05-21 14:02:00,
2013-05-21 10:17:00,75.7,70.2,29.70,West,270,2.7,-999.0,83,-99.99,,,0.00,Acu-Link.com,2013-05-21 14:17:00,
2013-05-21 10:32:00,74.8,69.6,29.70,West,270,3.2,-999.0,84,-99.99,,,0.00,Acu-Link.com,2013-05-21 14:32:00,
2013-05-21 10:47:00,75.9,70.4,29.69,West,270,2.2,-999.0,83,-99.99,,,0.00,Acu-Link.com,2013-05-21 14:47:00,
2013-05-21 11:02:00,75.7,70.2,29.69,WSW,247,3.2,-999.0,83,-99.99,,,0.00,Acu-Link.com,2013-05-21 15:02:00,
2013-05-21 11:17:00,76.3,70.7,29.69,SSE,157,2.7,-999.0,83,-99.99,,,0.00,Acu-Link.com,2013-05-21 15:17:00,
2013-05-21 11:32:00,77.2,70.9,29.68,SSW,202,1.7,-999.0,81,-99.99,,,0.00,Acu-Link.com,2013-05-21 15:32:00,
2013-05-21 11:48:00,77.9,71.2,29.67,NNW,337,2.7,-999.0,80,-99.99,,,0.00,Acu-Link.com,2013-05-21 15:48:00,
2013-05-21 12:03:00,78.1,70.7,29.66,SE,135,3.2,-999.0,78,-99.99,,,0.00,Acu-Link.com,2013-05-21 16:03:00,
2013-05-21 12:18:00,79.9,72.8,29.65,NE,45,2.2,-999.0,79,-99.99,,,0.00,Acu-Link.com,2013-05-21 16:18:00,
2013-05-21 12:33:00,79.0,70.4,29.64,SSW,202,1.1,-999.0,75,-99.99,,,0.00,Acu-Link.com,2013-05-21 16:33:00,
2013-05-21 12:48:00,80.6,71.1,29.64,West,270,3.2,-999.0,73,-99.99,,,0.00,Acu-Link.com,2013-05-21 16:48:00,
2013-05-21 13:03:00,80.4,70.5,29.65,SW,225,2.7,-999.0,72,-99.99,,,0.00,Acu-Link.com,2013-05-21 17:03:00,
2013-05-21 13:18:00,82.0,71.6,29.63,West,270,2.7,-999.0,71,-99.99,,,0.00,Acu-Link.com,2013-05-21 17:18:00,
2013-05-21 13:34:00,82.8,69.4,29.63,West,270,9.4,-999.0,64,-99.99,,,0.00,Acu-Link.com,2013-05-21 17:34:00,
2013-05-21 13:49:00,81.7,68.8,29.62,SSE,157,4.7,-999.0,65,-99.99,,,0.00,Acu-Link.com,2013-05-21 17:49:00,
2013-05-21 14:04:00,82.9,69.0,29.62,NW,315,3.7,-999.0,63,-99.99,,,0.00,Acu-Link.com,2013-05-21 18:04:00,
2013-05-21 14:19:00,81.3,67.9,29.61,WSW,247,4.2,-999.0,64,-99.99,,,0.00,Acu-Link.com,2013-05-21 18:19:00,
2013-05-21 14:34:00,82.8,69.4,29.62,West,270,4.7,-999.0,64,-99.99,,,0.00,Acu-Link.com,2013-05-21 18:34:00,
2013-05-21 14:49:00,83.8,69.8,29.62,WSW,247,3.7,-999.0,63,-99.99,,,0.00,Acu-Link.com,2013-05-21 18:49:00,
2013-05-21 15:04:00,84.2,69.7,29.60,WSW,247,2.7,-999.0,62,-99.99,,,0.00,Acu-Link.com,2013-05-21 19:04:00,
2013-05-21 15:19:00,84.7,66.2,29.60,WSW,247,3.2,-999.0,54,-99.99,,,0.00,Acu-Link.com,2013-05-21 19:19:00,
2013-05-21 15:34:00,83.7,66.3,29.59,WSW,247,4.2,-999.0,56,-99.99,,,0.00,Acu-Link.com,2013-05-21 19:34:00,
2013-05-21 15:50:00,84.4,68.0,29.59,West,270,2.7,-999.0,58,-99.99,,,0.00,Acu-Link.com,2013-05-21 19:50:00,
2013-05-21 16:05:00,85.8,67.7,29.58,WSW,247,2.7,-999.0,55,-99.99,,,0.00,Acu-Link.com,2013-05-21 20:05:00,
2013-05-21 16:20:00,86.0,69.0,29.59,SW,225,3.2,-999.0,57,-99.99,,,0.00,Acu-Link.com,2013-05-21 20:20:00,
2013-05-21 16:35:00,86.0,70.0,29.58,WSW,247,3.2,-999.0,59,-99.99,,,0.00,Acu-Link.com,2013-05-21 20:35:00,
2013-05-21 16:50:00,86.5,69.9,29.57,WSW,247,2.2,-999.0,58,-99.99,,,0.00,Acu-Link.com,2013-05-21 20:50:00,
2013-05-21 17:05:00,86.9,69.8,29.56,WSW,247,3.7,-999.0,57,-99.99,,,0.00,Acu-Link.com,2013-05-21 21:05:00,
2013-05-21 17:20:00,85.6,67.5,29.56,WNW,292,2.2,-999.0,55,-99.99,,,0.00,Acu-Link.com,2013-05-21 21:20:00,
2013-05-21 17:35:00,85.3,67.8,29.58,SW,225,2.7,-999.0,56,-99.99,,,0.00,Acu-Link.com,2013-05-21 21:35:00,
2013-05-21 17:50:00,84.4,65.9,29.56,WSW,247,4.2,-999.0,54,-99.99,,,0.00,Acu-Link.com,2013-05-21 21:50:00,
2013-05-21 18:06:00,75.4,63.2,29.60,WSW,247,9.4,-999.0,66,-99.99,,,0.00,Acu-Link.com,2013-05-21 22:06:00,
2013-05-21 18:21:00,70.0,65.9,29.60,WSW,247,3.7,-999.0,87,-99.99,,,0.02,Acu-Link.com,2013-05-21 22:21:00,
2013-05-21 18:36:00,69.8,66.7,29.61,WSW,247,2.2,-999.0,90,-99.99,,,0.02,Acu-Link.com,2013-05-21 22:36:00,
2013-05-21 18:51:00,70.0,67.2,29.59,SW,225,1.1,-999.0,91,-99.99,,,0.02,Acu-Link.com,2013-05-21 22:51:00,
2013-05-21 19:06:00,70.9,66.8,29.58,West,270,2.7,-999.0,87,-99.99,,,0.02,Acu-Link.com,2013-05-21 23:06:00,
2013-05-21 19:21:00,70.9,67.2,29.57,WSW,247,2.7,-999.0,88,-99.99,,,0.02,Acu-Link.com,2013-05-21 23:21:00,
2013-05-21 19:36:00,70.5,66.8,29.57,NE,45,3.2,-999.0,88,-99.99,,,0.02,Acu-Link.com,2013-05-21 23:36:00,
2013-05-21 19:51:00,70.0,66.6,29.58,SE,135,1.7,-999.0,89,-99.99,,,0.02,Acu-Link.com,2013-05-21 23:51:00,
2013-05-21 20:06:00,69.3,66.2,29.59,SW,225,1.7,-999.0,90,-99.99,,,0.02,Acu-Link.com,2013-05-22 00:06:00,
2013-05-21 20:22:00,68.7,65.6,29.59,West,270,3.2,-999.0,90,-99.99,,,0.02,Acu-Link.com,2013-05-22 00:22:00,
2013-05-21 20:37:00,67.8,65.4,29.59,WSW,247,3.2,-999.0,92,-99.99,,,0.02,Acu-Link.com,2013-05-22 00:37:00,
2013-05-21 20:52:00,67.6,65.2,29.59,WSW,247,2.2,-999.0,92,-99.99,,,0.02,Acu-Link.com,2013-05-22 00:52:00,
2013-05-21 21:07:00,67.1,65.0,29.60,WNW,292,2.7,-999.0,93,-99.99,,,0.02,Acu-Link.com,2013-05-22 01:07:00,
2013-05-21 21:22:00,66.6,64.8,29.59,South,180,1.7,-999.0,94,-99.99,,,0.02,Acu-Link.com,2013-05-22 01:22:00,
2013-05-21 21:37:00,65.7,64.5,29.60,SSW,202,1.1,-999.0,96,-99.99,,,0.02,Acu-Link.com,2013-05-22 01:37:00,
2013-05-21 21:52:00,65.5,64.9,29.60,WSW,247,1.7,-999.0,98,-99.99,,,0.02,Acu-Link.com,2013-05-22 01:52:00,
2013-05-21 22:07:00,65.1,64.5,29.60,West,270,2.2,-999.0,98,-99.99,,,0.02,Acu-Link.com,2013-05-22 02:07:00,
2013-05-21 22:26:00,64.6,64.0,29.59,West,270,1.7,-999.0,98,-99.99,,,0.02,Acu-Link.com,2013-05-22 02:26:00,
2013-05-21 22:42:00,64.4,63.8,29.61,WNW,292,0.0,-999.0,98,-99.99,,,0.02,Acu-Link.com,2013-05-22 02:42:00,
2013-05-21 22:57:00,63.9,63.6,29.60,NNW,337,1.7,-999.0,99,-99.99,,,0.02,Acu-Link.com,2013-05-22 02:57:00,
2013-05-21 23:12:00,63.9,63.6,29.62,NNW,337,0.0,-999.0,99,-99.99,,,0.02,Acu-Link.com,2013-05-22 03:12:00,
2013-05-21 23:27:00,63.7,63.4,29.62,West,270,2.2,-999.0,99,-99.99,,,0.02,Acu-Link.com,2013-05-22 03:27:00,
2013-05-21 23:42:00,63.3,63.0,29.63,West,270,2.2,-999.0,99,-99.99,,,0.02,Acu-Link.com,2013-05-22 03:42:00,
2013-05-21 23:57:00,63.3,63.0,29.63,SSE,157,2.7,-999.0,99,-99.99,,,0.02,Acu-Link.com,2013-05-22 03:57:00,